Airfield :
LOGIN :

Register | Disclaimer

   EN    FR    IT 

 










Legend :    VFR   Marginal VFR   IFR   Intensive IFR   Very Intensive IFR
Visi :
Ceiling :
>= 8 km
>= 3000ft
5 to 8 km
1000 to 3000 ft
1500m to 5 km
500 to 1000 ft
800 to 1500m
200 to 500 ft
< 800m
< 200 ft
Symbols :   Thunderstorms  Fog  Heavy snow  Heavy precipitations  Wind > 20 kt
SIGMETs :     Misc.  Thunderstorms  Icing  Turbulence  Mountain Waves  Volcanic Ashes






- Airport Elevation : 5600 ft
- IATA code : SMV


LSZS - Samedan

CURRENT METAR :
  • 251950Z AUTO 17004KT 3900 -RA BR BKN011 04/03 Q1013

EXPIRED METARs :
  • 251920Z AUTO 14005KT 9999 -RA SCT024 SCT028 05/03 Q1013
  • 251850Z AUTO 18003KT 150V210 7000 RA BKN010 //////TCU 05/03 Q1013
  • 251820Z AUTO 16005KT 9999 -RA FEW015 BKN024 BKN027 05/03 Q1013
  • 251750Z AUTO 20008KT 160V230 9999 -RA FEW013 BKN027 05/03 Q1012
  • 251720Z AUTO 18002KT 9999 -RA FEW021 BKN027 BKN030 07/04 Q1012

TAF TAF LSZS
Valid from the 25 at 15:00 until the 26 at 00:00 UTC


251425Z 2515/2524 24006KT 9999 FEW035 BKN050 TX09/2515Z
TEMPO 2515/2524 SHRA SCT025TCU
TEMPO 2518/2521 2500 +SHRA
PROB30
TEMPO 2518/2524 BKN012
ATIS : +41 81 834 93 24



MET'MAP, your aeronautical weather chart ! - Copyright ORBIFLY December 2007 - Disclaimer

ORBIFLY MET'MAP TEAM :

Programming & Development : Alexandra Zaïnal
Original concept : Baudouin d'Aumeries
Technical & hardware support : Manuel Goepfert
Assistance : Marc-Olivier Méhu




SOURCES & CREDITS :

   NOAA